Hauptseite
METAR-TAF:

METAR-TAF

Flughäfen :

Flughafen Bergamo

Bergamo, Italien

Breite: 45-40N, Länge: 009-42E, Höhe: 238 m

Beobachtung

Neuester Wetterbericht von vor 37 Minuten, um 04:20 UTC
Wind 4 kt aus West/Südwest, variierte zwischen Süd/Südwest und West
Temperatur 7°C
Luftfeuchtigkeit 100%
Luftdruck 1003 hPa
Sichtweite: 3000 m
Aufgelockert bewölkt in der Höhe von 500 ft
Geschlossene Wolkendecke in der Höhe von 5000 ft
Sprühregen, feuchter Dunst

METAR: LIME 170420Z 25004KT 210V280 3000 DZ BR SCT005 OVC050 07/07 Q1003 NOSIG

Zeit: 05:57 (04:57 UTC)

Prognose

Neuester Wetterbericht von vor 5 Stunden und 57 Minuten, um 23:00 UTC
Gültige Prognose vom 17 um 00 UTC bis 17 um 24 UTC
Wind 5 kt aus unterschiedlichen Richtungen
Sichtweite: 5000 m
Durchbrochene Bewölkung in der Höhe von 1500 ft
Durchbrochene Bewölkung in der Höhe von 5000 ft
Regen

TAF: LIME 162300Z 1700/1724 VRB05KT 5000 RA BKN015 BKN050

Wetterbeobachtungen und Prognosen von mehr als 4000 Flughäfen (METAR und TAF Bericht).

Die verfügbaren Stationen werden durch gelbe und rote Markierungen auf der Karte dargestellt.

Führen Sie die Maus auf sie, um den Namen der Station zu sehen.

Darauf klicken, um die Beobachtung von Wetterbeobachtungen und Prognosen zu sehen.

Um die Karte zu ändern : klicken Sie auf den grünen Tasten mit einem schwarzen Kreuz Zum Vergrößern, auf den grünen Button mit einem Gedankenstrich zu verkleinern, oder auf die grünen Pfeile für benachbarte Karten.


METAR-TAF: